Time;durP1;ratioP1;P1;durP2;ratioP2;P2;SDS_P1;SDS_P2;PMS_P1;PMS_P2;Temp;Humidity;BMP_temperature;BMP_pressure;BME280_temperature;BME280_humidity;BME280_pressure;Samples;Min_cycle;Max_cycle;Signal;HPM_P1;HPM_P2
2023/08/17 00:00:55;;;;;;;5.70;2.80;;;17.10;99.90;;;;;;5117668;28;20273;-52
2023/08/17 00:03:21;;;;;;;8.60;2.90;;;17.10;99.90;;;;;;5117881;28;20179;-52
2023/08/17 00:05:46;;;;;;;5.47;2.70;;;17.10;1.00;;;;;;5117272;28;20700;-52
2023/08/17 00:08:12;;;;;;;6.63;2.57;;;17.20;99.90;;;;;;5117692;28;20225;-52
2023/08/17 00:10:38;;;;;;;4.53;2.33;;;17.20;99.90;;;;;;5117442;28;20669;-53
2023/08/17 00:13:04;;;;;;;5.97;2.80;;;17.10;1.00;;;;;;5117723;28;20181;-54
2023/08/17 00:15:30;;;;;;;11.37;2.60;;;17.10;1.00;;;;;;5117627;28;20905;-52
2023/08/17 00:17:55;;;;;;;3.33;2.33;;;17.10;1.00;;;;;;5117646;28;20172;-53
2023/08/17 00:20:21;;;;;;;5.60;2.90;;;17.10;1.00;;;;;;5117845;28;20615;-52
2023/08/17 00:22:46;;;;;;;11.00;3.17;;;17.10;1.00;;;;;;5117724;28;20229;-53
2023/08/17 00:25:12;;;;;;;4.63;2.50;;;17.10;1.00;;;;;;5117768;28;20181;-53
2023/08/17 00:27:38;;;;;;;4.43;2.50;;;17.10;1.00;;;;;;5117768;28;20189;-53
2023/08/17 00:30:04;;;;;;;9.60;3.30;;;17.10;1.00;;;;;;5116987;28;20814;-53
2023/08/17 00:32:30;;;;;;;7.90;2.70;;;17.10;1.00;;;;;;5117054;28;20568;-53
2023/08/17 00:34:55;;;;;;;5.67;2.67;;;17.10;1.00;;;;;;5116474;28;20411;-53
2023/08/17 00:37:21;;;;;;;6.20;2.33;;;17.10;1.00;;;;;;5117125;28;20189;-53
2023/08/17 00:39:47;;;;;;;8.40;2.80;;;17.20;1.00;;;;;;5117161;28;20249;-52
2023/08/17 00:42:12;;;;;;;5.60;2.40;;;17.20;1.00;;;;;;5117389;28;20651;-52
2023/08/17 00:44:38;;;;;;;6.43;2.70;;;17.10;1.00;;;;;;5117497;28;20511;-53
2023/08/17 00:47:04;;;;;;;8.90;2.90;;;17.20;1.00;;;;;;5117026;28;20188;-53
2023/08/17 00:49:30;;;;;;;8.17;2.90;;;17.20;1.00;;;;;;5116918;28;20660;-54
2023/08/17 00:51:56;;;;;;;7.43;3.27;;;17.10;1.00;;;;;;5116963;28;20778;-52
2023/08/17 00:54:25;;;;;;;6.50;3.50;;;17.10;1.00;;;;;;5117068;28;20426;-52
2023/08/17 00:56:52;;;;;;;3.70;2.70;;;17.10;1.00;;;;;;5116684;28;20403;-52
2023/08/17 00:59:18;;;;;;;5.30;2.40;;;17.10;1.00;;;;;;5116852;28;20423;-53
2023/08/17 01:01:44;;;;;;;5.30;2.77;;;17.10;1.00;;;;;;5117066;28;20424;-52
2023/08/17 01:04:09;;;;;;;5.40;3.10;;;17.10;99.90;;;;;;5116572;28;20196;-52
2023/08/17 01:06:35;;;;;;;9.23;2.80;;;17.10;1.00;;;;;;5116712;28;20463;-52
2023/08/17 01:09:00;;;;;;;5.50;2.30;;;17.00;1.00;;;;;;5116118;28;20534;-53
2023/08/17 01:11:34;;;;;;;5.50;2.73;;;17.00;1.00;;;;;;5116824;28;20221;-52
2023/08/17 01:14:29;;;;;;;7.80;2.70;;;17.00;1.00;;;;;;5116408;28;20189;-53
2023/08/17 01:17:14;;;;;;;3.83;2.70;;;17.10;1.00;;;;;;5116507;28;20414;-53
2023/08/17 01:19:42;;;;;;;7.00;3.10;;;17.00;1.00;;;;;;5116514;28;20887;-54
2023/08/17 01:22:10;;;;;;;11.17;2.50;;;17.00;1.00;;;;;;5116100;28;20469;-53
2023/08/17 01:24:36;;;;;;;5.40;2.50;;;17.00;37.00;;;;;;5116352;28;20413;-52
2023/08/17 01:27:02;;;;;;;5.20;2.67;;;16.90;99.90;;;;;;5115939;28;20470;-52
2023/08/17 01:29:27;;;;;;;5.57;2.57;;;16.90;99.90;;;;;;5116123;28;20295;-52
2023/08/17 01:32:06;;;;;;;6.70;3.00;;;16.90;99.90;;;;;;5116188;28;20280;-53
2023/08/17 01:34:39;;;;;;;11.33;3.53;;;16.80;99.90;;;;;;5116250;28;20438;-52
2023/08/17 01:37:09;;;;;;;11.07;2.70;;;16.90;99.90;;;;;;5116344;28;20402;-53
2023/08/17 01:39:40;;;;;;;6.67;2.70;;;16.90;99.90;;;;;;5116273;28;20423;-52
2023/08/17 01:42:07;;;;;;;5.50;2.60;;;16.90;99.90;;;;;;5115848;28;20402;-52
2023/08/17 01:44:33;;;;;;;6.63;3.00;;;16.90;99.90;;;;;;5116461;28;20414;-54
2023/08/17 01:46:58;;;;;;;7.33;2.60;;;16.90;99.90;;;;;;5114714;28;20433;-52
2023/08/17 01:49:24;;;;;;;6.00;2.77;;;16.80;99.90;;;;;;5116086;28;20212;-52
2023/08/17 01:51:49;;;;;;;6.83;2.87;;;16.80;99.90;;;;;;5097144;28;20229;-53
2023/08/17 01:54:15;;;;;;;7.00;3.20;;;16.80;1.00;;;;;;5115988;28;20181;-53
2023/08/17 01:56:41;;;;;;;10.80;2.50;;;16.80;1.00;;;;;;5115749;28;20330;-54
2023/08/17 01:59:06;;;;;;;4.30;2.63;;;16.80;1.00;;;;;;5115567;28;20198;-53
2023/08/17 02:01:32;;;;;;;5.73;2.70;;;16.90;1.00;;;;;;5115725;28;20179;-53
2023/08/17 02:03:59;;;;;;;6.17;2.90;;;16.80;99.90;;;;;;5115666;28;20187;-54
2023/08/17 02:06:25;;;;;;;5.30;2.60;;;16.80;99.90;;;;;;5115370;28;20182;-52
2023/08/17 02:08:51;;;;;;;3.87;2.50;;;16.80;99.90;;;;;;5115006;28;20408;-52
2023/08/17 02:11:17;;;;;;;4.10;2.50;;;16.80;99.90;;;;;;5115499;28;20650;-52
2023/08/17 02:13:42;;;;;;;7.03;3.00;;;16.80;99.90;;;;;;5115592;28;20414;-52
2023/08/17 02:16:08;;;;;;;6.37;2.80;;;16.80;99.90;;;;;;5115011;28;20188;-52
2023/08/17 02:18:34;;;;;;;6.93;3.40;;;16.70;1.00;;;;;;5115522;28;20238;-53
2023/08/17 02:21:00;;;;;;;6.33;2.83;;;16.70;1.00;;;;;;5114940;28;20639;-53
2023/08/17 02:23:25;;;;;;;7.57;3.00;;;16.70;1.00;;;;;;5115049;28;20429;-52
2023/08/17 02:25:51;;;;;;;6.60;2.80;;;16.70;1.00;;;;;;5114779;28;20560;-52
2023/08/17 02:28:16;;;;;;;8.73;3.40;;;16.70;1.00;;;;;;5115042;28;20187;-52
2023/08/17 02:30:43;;;;;;;5.90;3.10;;;16.70;33.70;;;;;;5114645;28;20248;-52
2023/08/17 02:33:09;;;;;;;3.90;2.40;;;16.70;99.90;;;;;;5114595;28;20177;-53
2023/08/17 02:35:34;;;;;;;10.43;2.83;;;16.80;1.00;;;;;;5114455;28;20545;-53
2023/08/17 02:38:00;;;;;;;4.70;2.57;;;16.80;1.00;;;;;;5114811;28;20184;-52
2023/08/17 02:40:25;;;;;;;7.43;2.83;;;16.70;1.00;;;;;;5114942;28;20177;-52
2023/08/17 02:42:51;;;;;;;5.17;2.43;;;16.70;1.00;;;;;;5114864;28;20197;-53
2023/08/17 02:45:17;;;;;;;5.50;2.70;;;16.70;38.80;;;;;;5114744;28;20497;-53
2023/08/17 02:47:42;;;;;;;2.60;2.40;;;16.70;29.80;;;;;;5114786;28;20232;-52
2023/08/17 02:50:08;;;;;;;4.43;2.50;;;16.70;99.90;;;;;;5114315;28;20563;-53
2023/08/17 02:52:34;;;;;;;6.30;2.33;;;16.70;99.90;;;;;;5114692;28;20219;-52
2023/08/17 02:54:59;;;;;;;5.30;2.70;;;16.70;99.90;;;;;;5114527;28;20417;-52
2023/08/17 02:57:25;;;;;;;2.83;2.33;;;16.70;1.00;;;;;;5114599;28;20666;-52
2023/08/17 02:59:51;;;;;;;5.43;3.10;;;16.70;73.80;;;;;;5114366;28;20194;-54
2023/08/17 03:02:16;;;;;;;5.23;2.70;;;16.70;19.70;;;;;;5114675;28;20227;-52
2023/08/17 03:04:42;;;;;;;9.83;2.20;;;16.70;1.00;;;;;;5114549;28;20186;-53
2023/08/17 03:07:07;;;;;;;6.70;2.60;;;16.70;1.00;;;;;;5114903;28;20226;-53
2023/08/17 03:09:33;;;;;;;5.43;2.93;;;16.60;99.90;;;;;;5114419;28;20252;-52
2023/08/17 03:11:58;;;;;;;4.83;2.43;;;16.70;89.20;;;;;;5114636;28;20202;-52
2023/08/17 03:14:24;;;;;;;4.70;2.40;;;16.60;1.00;;;;;;5114283;28;20644;-52
2023/08/17 03:16:50;;;;;;;4.63;2.63;;;16.70;99.90;;;;;;5114540;28;20177;-52
2023/08/17 03:19:15;;;;;;;4.60;2.43;;;16.60;99.90;;;;;;5114633;28;20188;-54
2023/08/17 03:21:41;;;;;;;5.13;2.57;;;16.60;99.90;;;;;;5114091;28;20732;-52
2023/08/17 03:24:07;;;;;;;4.00;2.57;;;16.50;1.00;;;;;;5114326;28;20314;-52
2023/08/17 03:26:33;;;;;;;7.13;2.77;;;16.60;1.00;;;;;;5114331;28;20197;-52
2023/08/17 03:28:58;;;;;;;4.60;2.40;;;16.60;99.90;;;;;;5114039;28;20897;-53
2023/08/17 03:31:24;;;;;;;6.03;2.50;;;16.60;99.90;;;;;;5113824;28;20207;-52
2023/08/17 03:33:49;;;;;;;4.13;2.73;;;16.60;99.90;;;;;;5113909;28;20188;-53
2023/08/17 03:36:15;;;;;;;7.10;2.60;;;16.50;99.90;;;;;;5114474;28;20260;-52
2023/08/17 03:38:41;;;;;;;7.30;2.60;;;16.60;1.00;;;;;;5114646;28;20180;-52
2023/08/17 03:41:07;;;;;;;5.27;2.47;;;16.50;1.00;;;;;;5114502;28;20199;-54
2023/08/17 03:43:32;;;;;;;3.30;2.10;;;16.60;81.80;;;;;;5114212;28;20279;-53
2023/08/17 03:45:58;;;;;;;6.40;2.80;;;16.60;1.00;;;;;;5113940;28;20933;-53
2023/08/17 03:48:24;;;;;;;2.17;1.97;;;16.60;1.00;;;;;;5113831;28;20215;-52
2023/08/17 03:50:54;;;;;;;10.73;2.63;;;16.60;82.40;;;;;;5113689;28;20298;-52
2023/08/17 03:53:20;;;;;;;7.17;2.40;;;16.60;99.90;;;;;;5114159;28;20546;-51
2023/08/17 03:55:49;;;;;;;2.67;2.47;;;16.60;1.00;;;;;;5113782;28;20416;-52
2023/08/17 03:58:15;;;;;;;2.60;2.17;;;16.60;1.00;;;;;;5114196;28;20187;-53
2023/08/17 04:00:42;;;;;;;3.67;2.50;;;16.60;99.90;;;;;;5114362;28;20462;-51
2023/08/17 04:03:08;;;;;;;4.93;2.30;;;16.60;99.90;;;;;;5114104;28;20887;-52
2023/08/17 04:05:33;;;;;;;4.10;2.83;;;16.60;1.00;;;;;;5113674;28;20424;-52
2023/08/17 04:08:02;;;;;;;6.67;2.70;;;16.70;1.00;;;;;;5113773;28;20618;-53
2023/08/17 04:10:28;;;;;;;5.10;2.60;;;16.70;26.50;;;;;;5116806;28;20218;-52
2023/08/17 04:12:54;;;;;;;4.50;2.53;;;16.60;1.00;;;;;;5117387;28;20530;-52
2023/08/17 04:15:19;;;;;;;7.93;2.50;;;16.70;99.90;;;;;;5117605;28;20918;-51
2023/08/17 04:17:45;;;;;;;6.03;2.83;;;16.70;99.90;;;;;;5117542;28;20227;-52
2023/08/17 04:20:11;;;;;;;3.30;2.33;;;16.70;54.00;;;;;;5117612;28;20184;-52
2023/08/17 04:22:36;;;;;;;7.33;2.80;;;16.80;99.90;;;;;;5117009;28;20235;-53
2023/08/17 04:25:02;;;;;;;3.03;2.07;;;16.70;99.90;;;;;;5117177;28;20419;-53
2023/08/17 04:27:28;;;;;;;5.60;2.80;;;16.70;99.90;;;;;;5117305;28;20183;-53
2023/08/17 04:29:53;;;;;;;2.90;2.00;;;16.70;48.00;;;;;;5117282;28;20642;-52
2023/08/17 04:32:19;;;;;;;5.80;2.30;;;16.70;1.00;;;;;;5117070;28;20195;-53
2023/08/17 04:34:46;;;;;;;8.00;3.17;;;16.70;1.00;;;;;;5117480;28;20190;-52
2023/08/17 04:37:11;;;;;;;11.03;2.50;;;16.70;1.00;;;;;;5117828;28;20202;-53
2023/08/17 04:39:37;;;;;;;6.63;2.87;;;16.70;1.00;;;;;;5117375;28;20766;-52
2023/08/17 04:42:04;;;;;;;4.97;3.17;;;16.60;99.90;;;;;;5117630;28;20181;-54
2023/08/17 04:44:30;;;;;;;5.63;3.00;;;16.70;77.40;;;;;;5117215;28;20886;-53
2023/08/17 04:46:55;;;;;;;9.10;2.83;;;16.70;99.90;;;;;;5117293;28;20407;-54
2023/08/17 04:49:21;;;;;;;7.83;2.73;;;16.70;1.00;;;;;;5117179;28;20556;-51
2023/08/17 04:51:46;;;;;;;9.57;2.70;;;16.70;1.00;;;;;;5117049;28;20184;-52
2023/08/17 04:54:12;;;;;;;6.77;2.80;;;16.80;99.90;;;;;;5116624;28;20184;-52
2023/08/17 04:56:37;;;;;;;8.60;2.70;;;16.70;99.90;;;;;;5117193;28;20245;-53
2023/08/17 04:59:03;;;;;;;7.27;2.80;;;16.70;99.90;;;;;;5117102;28;20181;-53
2023/08/17 05:01:29;;;;;;;8.87;2.93;;;16.70;99.90;;;;;;5117059;28;20517;-52
2023/08/17 05:03:54;;;;;;;7.70;2.80;;;16.70;1.00;;;;;;5116634;28;20230;-51
2023/08/17 05:06:20;;;;;;;7.90;3.10;;;16.60;1.00;;;;;;5116484;28;20180;-52
2023/08/17 05:08:45;;;;;;;5.63;3.30;;;16.60;99.90;;;;;;5116676;28;20647;-53
2023/08/17 05:11:12;;;;;;;3.30;2.77;;;16.60;99.90;;;;;;5116277;28;20667;-51
2023/08/17 05:13:37;;;;;;;3.17;2.87;;;16.60;1.00;;;;;;5116611;28;20192;-52
2023/08/17 05:16:03;;;;;;;5.40;3.13;;;16.60;37.20;;;;;;5116367;28;20414;-50
2023/08/17 05:18:29;;;;;;;7.50;3.20;;;16.60;99.90;;;;;;5116197;28;20191;-53
2023/08/17 05:20:54;;;;;;;10.13;3.70;;;16.60;1.00;;;;;;5116009;28;20191;-52
2023/08/17 05:23:21;;;;;;;4.93;3.00;;;16.60;1.00;;;;;;5116380;28;20249;-51
2023/08/17 05:25:47;;;;;;;6.33;3.60;;;16.60;1.00;;;;;;5116015;28;20431;-51
2023/08/17 05:28:13;;;;;;;8.20;3.80;;;16.60;1.00;;;;;;5116270;28;20187;-51
2023/08/17 05:30:39;;;;;;;9.07;4.00;;;16.50;1.00;;;;;;5116222;28;20857;-51
2023/08/17 05:33:04;;;;;;;7.93;3.93;;;16.60;24.00;;;;;;5115729;28;20273;-52
2023/08/17 05:35:30;;;;;;;10.30;3.53;;;16.60;57.60;;;;;;5116146;28;20190;-52
2023/08/17 05:37:55;;;;;;;9.93;3.47;;;16.50;27.10;;;;;;5115982;28;20511;-51
2023/08/17 05:40:21;;;;;;;5.90;4.00;;;16.50;99.90;;;;;;5116260;28;20192;-52
2023/08/17 05:42:47;;;;;;;8.13;3.50;;;16.40;99.90;;;;;;5116148;28;20184;-52
2023/08/17 05:45:12;;;;;;;7.13;3.93;;;16.40;99.90;;;;;;5116042;28;20188;-52
2023/08/17 05:47:38;;;;;;;5.90;4.60;;;16.40;99.90;;;;;;5115805;28;20180;-53
2023/08/17 05:50:04;;;;;;;10.70;4.27;;;16.30;99.90;;;;;;5115698;28;20760;-54
2023/08/17 05:52:29;;;;;;;8.73;4.63;;;16.40;99.90;;;;;;5115701;28;20271;-52
2023/08/17 05:54:55;;;;;;;7.50;4.13;;;16.40;99.90;;;;;;5115732;28;20417;-53
2023/08/17 05:57:20;;;;;;;8.10;4.50;;;16.40;99.90;;;;;;5115751;28;20207;-52
2023/08/17 05:59:46;;;;;;;6.07;3.90;;;16.40;99.90;;;;;;5115543;28;20199;-51
2023/08/17 06:02:12;;;;;;;8.93;4.70;;;16.30;99.90;;;;;;5115614;28;20576;-51
2023/08/17 06:04:37;;;;;;;8.03;4.63;;;16.40;99.90;;;;;;5115731;28;20178;-53
2023/08/17 06:07:03;;;;;;;8.13;4.47;;;16.30;99.90;;;;;;5115523;28;20175;-52
2023/08/17 06:09:29;;;;;;;7.73;5.03;;;16.40;99.90;;;;;;5115715;28;20311;-52
2023/08/17 06:11:54;;;;;;;13.73;4.87;;;16.40;99.90;;;;;;5096886;28;20419;-52
2023/08/17 06:14:20;;;;;;;7.10;4.57;;;16.40;99.90;;;;;;5115095;28;20251;-53
2023/08/17 06:16:45;;;;;;;7.17;4.37;;;16.40;99.90;;;;;;5115230;28;20524;-52
2023/08/17 06:19:11;;;;;;;6.60;4.70;;;16.30;99.90;;;;;;5115264;28;20184;-52
2023/08/17 06:21:37;;;;;;;5.57;4.40;;;16.40;99.90;;;;;;5115126;28;20231;-52
2023/08/17 06:24:03;;;;;;;11.33;5.10;;;16.30;99.90;;;;;;5115114;28;20188;-52
2023/08/17 06:26:28;;;;;;;8.70;4.50;;;16.30;99.90;;;;;;5115153;28;20177;-51
2023/08/17 06:28:54;;;;;;;11.40;5.60;;;16.30;99.90;;;;;;5114852;28;20184;-53
2023/08/17 06:31:19;;;;;;;11.90;5.67;;;16.20;99.90;;;;;;5114269;28;20214;-54
2023/08/17 06:33:45;;;;;;;13.13;5.00;;;16.20;99.90;;;;;;5115031;28;20198;-52
2023/08/17 06:36:13;;;;;;;10.80;5.77;;;16.30;99.90;;;;;;5115174;28;20208;-51
2023/08/17 06:38:38;;;;;;;6.87;4.47;;;16.30;99.90;;;;;;5115472;28;20238;-51
2023/08/17 06:41:04;;;;;;;7.83;4.70;;;16.30;99.90;;;;;;5114969;28;20413;-52
2023/08/17 06:43:29;;;;;;;14.50;5.53;;;16.20;99.90;;;;;;5114922;28;20308;-52
2023/08/17 06:45:56;;;;;;;8.47;5.13;;;16.20;99.90;;;;;;5114724;28;20169;-51
2023/08/17 06:48:22;;;;;;;12.70;5.40;;;16.30;99.90;;;;;;5114461;28;20701;-52
2023/08/17 06:50:47;;;;;;;11.83;6.00;;;16.30;99.90;;;;;;5114789;28;20465;-52
2023/08/17 06:53:13;;;;;;;7.97;5.13;;;16.20;99.90;;;;;;5114773;28;20282;-52
2023/08/17 06:55:38;;;;;;;9.63;5.40;;;16.20;99.90;;;;;;5114210;28;20184;-52
2023/08/17 06:58:04;;;;;;;8.70;5.30;;;16.30;99.90;;;;;;5115783;28;20184;-52
2023/08/17 07:00:29;;;;;;;9.60;5.70;;;16.30;99.90;;;;;;5115351;28;20183;-52
2023/08/17 07:02:55;;;;;;;9.13;5.20;;;16.30;99.90;;;;;;5114348;28;20184;-51
2023/08/17 07:05:21;;;;;;;15.70;6.40;;;16.30;99.90;;;;;;5114710;28;20197;-51
2023/08/17 07:07:46;;;;;;;10.93;4.93;;;16.30;99.90;;;;;;5114790;28;20214;-51
2023/08/17 07:10:12;;;;;;;9.97;5.10;;;16.30;99.90;;;;;;5114342;28;20208;-51
2023/08/17 07:12:38;;;;;;;15.10;5.60;;;16.30;99.90;;;;;;5114404;28;20523;-52
2023/08/17 07:15:05;;;;;;;13.33;6.00;;;16.30;99.90;;;;;;5114199;28;20189;-51
2023/08/17 07:17:30;;;;;;;8.10;4.73;;;16.30;99.90;;;;;;5114290;28;20421;-51
2023/08/17 07:19:56;;;;;;;7.93;4.70;;;16.40;99.90;;;;;;5114138;28;20415;-52
2023/08/17 07:22:22;;;;;;;8.47;4.90;;;16.40;99.90;;;;;;5114319;28;20328;-51
2023/08/17 07:24:47;;;;;;;10.73;4.60;;;16.40;99.90;;;;;;5114477;28;20215;-52
2023/08/17 07:27:13;;;;;;;10.60;4.37;;;16.30;99.90;;;;;;5114717;28;20272;-52
2023/08/17 07:29:38;;;;;;;5.23;4.10;;;16.30;99.90;;;;;;5114540;28;20239;-51
2023/08/17 07:32:04;;;;;;;6.27;4.17;;;16.30;99.90;;;;;;5113915;28;20215;-52
2023/08/17 07:34:31;;;;;;;6.07;4.33;;;16.20;99.90;;;;;;5114013;28;20184;-52
2023/08/17 07:36:57;;;;;;;8.47;4.00;;;16.20;99.90;;;;;;5114575;28;20187;-54
2023/08/17 07:39:23;;;;;;;9.97;4.30;;;16.20;99.90;;;;;;5114197;28;20422;-52
2023/08/17 07:41:48;;;;;;;6.17;4.27;;;16.20;99.90;;;;;;5114524;28;20424;-52
2023/08/17 07:44:14;;;;;;;8.20;4.33;;;16.10;99.90;;;;;;5115488;28;20183;-53
2023/08/17 07:46:40;;;;;;;5.93;4.73;;;16.10;99.90;;;;;;5118350;28;20187;-52
2023/08/17 07:49:06;;;;;;;10.80;4.30;;;16.10;99.90;;;;;;5118009;28;20226;-52
2023/08/17 07:51:33;;;;;;;7.13;4.40;;;16.20;99.90;;;;;;5118158;28;20507;-53
2023/08/17 07:54:00;;;;;;;10.60;4.43;;;16.20;99.90;;;;;;5117872;28;20211;-52
2023/08/17 07:56:25;;;;;;;7.30;4.27;;;16.20;99.90;;;;;;5118110;28;20423;-52
2023/08/17 07:58:53;;;;;;;6.97;3.67;;;16.30;99.90;;;;;;5117872;28;20409;-51
2023/08/17 08:01:18;;;;;;;8.93;4.60;;;16.30;99.90;;;;;;5118351;28;20192;-53
2023/08/17 08:03:44;;;;;;;8.33;4.50;;;16.40;99.90;;;;;;5118016;28;20509;-52
2023/08/17 08:06:09;;;;;;;6.83;4.40;;;16.40;99.90;;;;;;5117914;28;20191;-52
2023/08/17 08:08:35;;;;;;;7.13;4.47;;;16.50;99.90;;;;;;5117628;28;20173;-52
2023/08/17 08:11:01;;;;;;;6.57;4.80;;;16.50;99.90;;;;;;5117475;28;20683;-53
2023/08/17 08:13:26;;;;;;;14.07;4.60;;;16.50;99.90;;;;;;5117511;28;20172;-53
2023/08/17 08:15:52;;;;;;;5.17;4.43;;;16.50;99.90;;;;;;5117734;28;20275;-53
2023/08/17 08:18:17;;;;;;;6.07;4.53;;;16.50;99.90;;;;;;5117978;28;20178;-53
2023/08/17 08:20:43;;;;;;;7.10;4.67;;;16.60;99.90;;;;;;5117420;28;20230;-52
2023/08/17 08:23:09;;;;;;;9.40;4.73;;;16.60;99.90;;;;;;5117127;28;20338;-53
2023/08/17 08:25:34;;;;;;;10.57;5.73;;;16.60;99.90;;;;;;5117681;28;20417;-52
2023/08/17 08:28:00;;;;;;;7.60;5.10;;;16.60;99.90;;;;;;5117708;28;20180;-54
2023/08/17 08:30:25;;;;;;;11.90;5.00;;;16.60;99.90;;;;;;5117026;28;20204;-53
2023/08/17 08:32:51;;;;;;;9.10;5.03;;;16.70;99.90;;;;;;5117554;28;20179;-52
2023/08/17 08:35:17;;;;;;;10.23;5.07;;;16.70;99.90;;;;;;5117686;28;20527;-52
2023/08/17 08:37:42;;;;;;;9.10;5.20;;;16.70;99.90;;;;;;5117387;28;20528;-51
2023/08/17 08:40:13;;;;;;;5.37;4.60;;;16.70;99.90;;;;;;5117563;28;20181;-52
2023/08/17 08:42:38;;;;;;;8.70;4.83;;;16.70;99.90;;;;;;5117656;28;20557;-53
2023/08/17 08:45:04;;;;;;;7.13;4.10;;;16.70;99.90;;;;;;5117379;28;20467;-53
2023/08/17 08:47:33;;;;;;;14.60;5.13;;;16.60;99.90;;;;;;5117160;28;20177;-53
2023/08/17 08:50:03;;;;;;;6.00;4.40;;;16.60;99.90;;;;;;5117217;28;20476;-52
2023/08/17 08:52:40;;;;;;;5.80;4.63;;;16.70;99.90;;;;;;5117100;28;20770;-52
2023/08/17 08:55:15;;;;;;;5.87;4.17;;;16.70;99.90;;;;;;5116481;28;20409;-52
2023/08/17 08:57:41;;;;;;;6.90;3.90;;;16.80;99.90;;;;;;5117196;28;20393;-53
2023/08/17 09:00:07;;;;;;;4.70;3.40;;;16.80;99.90;;;;;;5117003;28;20820;-54
2023/08/17 09:02:34;;;;;;;7.10;4.10;;;16.70;99.90;;;;;;5117166;28;20403;-54
2023/08/17 09:05:01;;;;;;;5.27;3.67;;;16.60;99.90;;;;;;5116791;28;20784;-53
2023/08/17 09:07:29;;;;;;;5.30;3.90;;;16.60;99.90;;;;;;5116386;28;20431;-54
2023/08/17 09:09:56;;;;;;;5.23;4.23;;;16.60;99.90;;;;;;5116580;28;20900;-53
2023/08/17 09:12:22;;;;;;;7.03;3.70;;;16.70;99.90;;;;;;5116374;28;20447;-52
2023/08/17 09:14:48;;;;;;;8.03;3.93;;;16.80;99.90;;;;;;5116246;28;20824;-54
2023/08/17 09:17:13;;;;;;;7.03;4.47;;;16.80;99.90;;;;;;5116221;28;20411;-53
2023/08/17 09:19:39;;;;;;;8.23;4.00;;;16.80;99.90;;;;;;5116165;28;20178;-51
2023/08/17 09:22:04;;;;;;;10.33;4.33;;;16.90;99.90;;;;;;5116483;28;20228;-51
2023/08/17 09:24:36;;;;;;;3.57;3.27;;;17.00;99.90;;;;;;5116429;28;20176;-52
2023/08/17 09:27:03;;;;;;;7.53;3.30;;;17.00;99.90;;;;;;5116422;28;20189;-52
2023/08/17 09:29:33;;;;;;;5.50;3.57;;;17.00;99.90;;;;;;5116256;28;20502;-53
2023/08/17 09:32:04;;;;;;;4.43;4.00;;;17.00;99.90;;;;;;5116204;28;20525;-53
2023/08/17 09:34:33;;;;;;;8.80;3.70;;;17.00;99.90;;;;;;5116521;28;20408;-53
2023/08/17 09:37:05;;;;;;;6.10;3.93;;;17.00;99.90;;;;;;5116393;28;20422;-54
2023/08/17 09:39:31;;;;;;;4.90;3.40;;;17.00;99.90;;;;;;5116142;28;20418;-53
2023/08/17 09:41:57;;;;;;;3.73;3.10;;;17.10;99.90;;;;;;5115936;28;20894;-53
2023/08/17 09:44:23;;;;;;;3.67;3.37;;;17.10;99.90;;;;;;5116110;28;20444;-54
2023/08/17 09:46:48;;;;;;;9.33;3.70;;;17.20;99.90;;;;;;5116290;28;20178;-53
2023/08/17 09:49:14;;;;;;;5.97;3.70;;;17.30;99.90;;;;;;5115795;28;20188;-55
2023/08/17 09:51:43;;;;;;;4.53;3.53;;;17.40;99.90;;;;;;5115893;28;20659;-54
2023/08/17 09:54:22;;;;;;;5.37;4.20;;;17.60;99.90;;;;;;5115509;28;20508;-53
2023/08/17 09:56:50;;;;;;;5.57;3.20;;;17.70;99.90;;;;;;5115669;28;20414;-53
2023/08/17 09:59:16;;;;;;;5.77;3.47;;;17.80;84.10;;;;;;5115656;28;20414;-55
2023/08/17 10:01:42;;;;;;;4.30;3.30;;;17.90;17.60;;;;;;5115832;28;20817;-53
2023/08/17 10:04:10;;;;;;;4.80;3.10;;;18.00;1.00;;;;;;5115796;28;20177;-54
2023/08/17 10:06:39;;;;;;;4.90;3.00;;;18.10;6.70;;;;;;5114847;28;20426;-54
2023/08/17 10:09:06;;;;;;;4.13;2.53;;;18.00;1.00;;;;;;5115531;28;20421;-52
2023/08/17 10:11:37;;;;;;;2.67;2.27;;;17.90;1.00;;;;;;5115425;28;20501;-54
2023/08/17 10:14:10;;;;;;;2.23;2.07;;;17.80;99.90;;;;;;5115195;28;20397;-53
2023/08/17 10:16:45;;;;;;;3.20;2.30;;;17.60;99.90;;;;;;5115799;28;20464;-54
2023/08/17 10:19:26;;;;;;;5.63;2.43;;;17.60;99.90;;;;;;5115645;28;20409;-51
2023/08/17 10:22:00;;;;;;;4.20;2.70;;;17.40;1.00;;;;;;5114744;28;20473;-53
2023/08/17 10:24:26;;;;;;;7.13;3.10;;;17.30;1.00;;;;;;5115407;28;20409;-53
2023/08/17 10:26:52;;;;;;;6.00;2.80;;;17.20;1.00;;;;;;5114852;28;20417;-53
2023/08/17 10:29:20;;;;;;;3.73;2.90;;;17.20;1.00;;;;;;5115146;28;20418;-54
2023/08/17 10:31:46;;;;;;;3.27;2.97;;;17.20;1.00;;;;;;5114974;28;20454;-53
2023/08/17 10:34:13;;;;;;;3.27;2.97;;;17.20;1.00;;;;;;5114688;28;20933;-54
2023/08/17 10:36:39;;;;;;;5.03;2.57;;;17.20;1.00;;;;;;5114692;28;20414;-53
2023/08/17 10:39:27;;;;;;;2.63;2.20;;;17.20;1.00;;;;;;5114746;28;20535;-53
2023/08/17 10:41:53;;;;;;;2.20;2.10;;;17.10;1.00;;;;;;5114606;28;20918;-55
2023/08/17 10:44:37;;;;;;;3.10;2.30;;;17.10;1.00;;;;;;5114977;28;20421;-54
2023/08/17 10:47:20;;;;;;;3.47;2.30;;;17.20;1.00;;;;;;5114657;28;20423;-54
2023/08/17 10:49:47;;;;;;;2.53;2.30;;;17.40;1.00;;;;;;5114950;28;20461;-53
2023/08/17 10:52:13;;;;;;;5.30;2.47;;;17.60;1.00;;;;;;5114472;28;20415;-53
2023/08/17 10:54:40;;;;;;;3.13;2.50;;;17.80;1.00;;;;;;5114385;28;20442;-54
2023/08/17 10:57:28;;;;;;;3.07;2.30;;;17.90;99.90;;;;;;5114942;28;20184;-53
2023/08/17 11:00:27;;;;;;;4.47;2.10;;;18.00;99.90;;;;;;5114775;28;20489;-54
2023/08/17 11:02:54;;;;;;;2.57;2.37;;;18.00;1.00;;;;;;5113880;28;20488;-53
2023/08/17 11:05:38;;;;;;;3.27;2.27;;;18.10;85.20;;;;;;5114920;28;20420;-54
2023/08/17 11:08:05;;;;;;;2.57;2.37;;;18.00;1.00;;;;;;5114816;28;20419;-55
2023/08/17 11:10:31;;;;;;;2.90;2.50;;;17.90;99.90;;;;;;5114445;28;20460;-53
2023/08/17 11:13:01;;;;;;;4.63;2.73;;;17.90;99.90;;;;;;5114081;28;20876;-54
2023/08/17 11:15:37;;;;;;;2.70;2.50;;;18.00;99.90;;;;;;5114771;28;20423;-53
2023/08/17 11:18:05;;;;;;;3.93;2.47;;;18.10;99.90;;;;;;5114484;28;20729;-54
2023/08/17 11:20:31;;;;;;;3.83;2.70;;;18.00;99.90;;;;;;5114711;28;20457;-54
2023/08/17 11:22:58;;;;;;;3.20;2.90;;;17.80;99.90;;;;;;5114086;28;20478;-54
2023/08/17 11:25:25;;;;;;;6.73;2.70;;;17.70;99.90;;;;;;5114665;28;20872;-53
2023/08/17 11:27:51;;;;;;;3.60;2.87;;;17.50;99.90;;;;;;5114078;28;20733;-53
2023/08/17 11:30:17;;;;;;;2.87;2.40;;;17.20;99.90;;;;;;5113848;28;20465;-54
2023/08/17 11:32:42;;;;;;;3.63;2.83;;;17.10;1.00;;;;;;5114515;28;20423;-53
2023/08/17 11:35:08;;;;;;;3.10;2.80;;;16.90;1.00;;;;;;5114191;28;20188;-52
2023/08/17 11:37:33;;;;;;;4.80;2.83;;;16.80;1.00;;;;;;5114637;28;20285;-54
2023/08/17 11:39:59;;;;;;;4.07;3.43;;;16.70;1.00;;;;;;5114438;28;20272;-53
2023/08/17 11:42:25;;;;;;;4.40;3.30;;;16.60;1.00;;;;;;5114513;28;20540;-53
2023/08/17 11:44:51;;;;;;;4.27;3.37;;;16.60;66.60;;;;;;5114310;28;20195;-53
2023/08/17 11:47:16;;;;;;;4.20;3.73;;;16.60;30.80;;;;;;5114130;28;20984;-53
2023/08/17 11:49:42;;;;;;;4.57;3.70;;;16.50;76.50;;;;;;5113698;28;20537;-52
2023/08/17 11:52:10;;;;;;;3.87;3.40;;;16.50;99.90;;;;;;5114093;28;20269;-52
2023/08/17 11:54:40;;;;;;;4.30;3.30;;;16.40;99.90;;;;;;5114082;28;20200;-53
2023/08/17 11:57:06;;;;;;;4.43;3.43;;;16.50;99.90;;;;;;5113788;28;20417;-53
2023/08/17 11:59:33;;;;;;;4.40;3.60;;;16.50;99.90;;;;;;5114017;28;20420;-53
2023/08/17 12:02:00;;;;;;;5.00;3.80;;;16.60;99.90;;;;;;5114188;28;20180;-52
2023/08/17 12:04:26;;;;;;;5.97;3.80;;;16.60;99.90;;;;;;5114310;28;20425;-53
2023/08/17 12:06:51;;;;;;;5.03;4.10;;;16.90;99.90;;;;;;5113634;28;20419;-53
2023/08/17 12:09:18;;;;;;;4.60;4.03;;;17.10;99.90;;;;;;5113616;28;20177;-55
2023/08/17 12:11:46;;;;;;;4.90;4.13;;;17.30;99.90;;;;;;5113822;28;20220;-53
2023/08/17 12:14:12;;;;;;;6.13;4.40;;;17.50;99.90;;;;;;5113756;28;20510;-53
2023/08/17 12:16:51;;;;;;;9.13;4.67;;;17.70;99.90;;;;;;5113843;28;20446;-54
2023/08/17 12:19:18;;;;;;;7.73;4.83;;;17.80;99.90;;;;;;5114035;28;20191;-53
2023/08/17 12:21:45;;;;;;;7.43;4.47;;;17.80;99.90;;;;;;5113240;28;20553;-53
2023/08/17 12:24:14;;;;;;;6.00;4.93;;;17.90;99.90;;;;;;5114104;28;20446;-54
2023/08/17 12:26:46;;;;;;;6.40;5.27;;;17.90;99.90;;;;;;5114100;28;20421;-53
2023/08/17 12:29:12;;;;;;;11.90;5.17;;;17.80;99.90;;;;;;5113757;28;20434;-53
2023/08/17 12:31:38;;;;;;;7.90;5.20;;;17.80;99.90;;;;;;5117017;28;20827;-53
2023/08/17 12:34:05;;;;;;;6.70;5.73;;;17.80;99.90;;;;;;5117449;28;20451;-53
2023/08/17 12:36:32;;;;;;;7.20;4.83;;;17.90;99.90;;;;;;5117330;28;20441;-54
2023/08/17 12:38:58;;;;;;;10.97;5.30;;;17.90;99.90;;;;;;5117657;28;20464;-53
2023/08/17 12:41:23;;;;;;;7.70;5.77;;;18.00;99.90;;;;;;5117561;28;20415;-53
2023/08/17 12:43:49;;;;;;;5.90;4.80;;;18.00;99.90;;;;;;5117113;28;20231;-53
2023/08/17 12:46:14;;;;;;;6.37;4.80;;;18.10;99.90;;;;;;5117121;28;20186;-53